< < Back
Terminal Aerodrome Forecast


Current Version              Previous Versions:   1  2  3  4  5  6  7  8  9  

Terminal Aerodrome Forecast

687
FTUS42 KFFC 301139
TAFFTY
TAF
KFTY 301139Z 3012/3112 00000KT P6SM SKC
     FM301500 32006KT P6SM FEW040
     FM301800 32009KT P6SM SCT060
     FM310100 34003KT P6SM FEW250
     FM310500 00000KT P6SM FEW250=



Latest METAR

269
SAUS70 KWBC 302200
MTRFTY
METAR KFTY 302153Z 32006KT 10SM CLR 32/13 A2993 RMK AO2 SLP125
T03220133


USA.gov is the U.S. government's official web portal to all federal, state and local government web resources and services.